sensor_id;sensor_type;location;lat;lon;timestamp;P1;durP1;ratioP1;P2;durP2;ratioP2
24635;SDS011;12772;49.794;10.024;2023-04-22T00:00:50;4.85;;;4.45;;
24635;SDS011;12772;49.794;10.024;2023-04-22T00:04:54;5.28;;;3.95;;
24635;SDS011;12772;49.794;10.024;2023-04-22T00:08:57;5.00;;;4.50;;
24635;SDS011;12772;49.794;10.024;2023-04-22T00:12:59;4.90;;;4.47;;
24635;SDS011;12772;49.794;10.024;2023-04-22T00:17:01;5.22;;;4.82;;
24635;SDS011;12772;49.794;10.024;2023-04-22T00:21:03;5.30;;;4.88;;
24635;SDS011;12772;49.794;10.024;2023-04-22T00:25:06;5.97;;;5.13;;
24635;SDS011;12772;49.794;10.024;2023-04-22T00:29:08;4.85;;;4.45;;
24635;SDS011;12772;49.794;10.024;2023-04-22T00:33:10;5.40;;;5.00;;
24635;SDS011;12772;49.794;10.024;2023-04-22T00:37:12;4.90;;;4.50;;
24635;SDS011;12772;49.794;10.024;2023-04-22T00:41:14;5.00;;;4.60;;
24635;SDS011;12772;49.794;10.024;2023-04-22T00:45:18;4.95;;;4.55;;
24635;SDS011;12772;49.794;10.024;2023-04-22T00:49:20;5.63;;;5.18;;
24635;SDS011;12772;49.794;10.024;2023-04-22T00:53:23;5.72;;;5.22;;
24635;SDS011;12772;49.794;10.024;2023-04-22T00:57:26;5.80;;;5.22;;
24635;SDS011;12772;49.794;10.024;2023-04-22T01:01:30;5.20;;;4.70;;
24635;SDS011;12772;49.794;10.024;2023-04-22T01:05:33;5.55;;;5.05;;
24635;SDS011;12772;49.794;10.024;2023-04-22T01:09:35;5.22;;;4.82;;
24635;SDS011;12772;49.794;10.024;2023-04-22T01:13:39;6.05;;;5.47;;
24635;SDS011;12772;49.794;10.024;2023-04-22T01:17:41;5.18;;;4.78;;
24635;SDS011;12772;49.794;10.024;2023-04-22T01:21:43;5.88;;;5.40;;
24635;SDS011;12772;49.794;10.024;2023-04-22T01:25:48;5.93;;;5.47;;
24635;SDS011;12772;49.794;10.024;2023-04-22T01:29:50;5.80;;;5.30;;
24635;SDS011;12772;49.794;10.024;2023-04-22T01:33:52;4.90;;;4.50;;
24635;SDS011;12772;49.794;10.024;2023-04-22T01:37:55;5.38;;;4.97;;
24635;SDS011;12772;49.794;10.024;2023-04-22T01:41:57;6.30;;;5.55;;
24635;SDS011;12772;49.794;10.024;2023-04-22T01:46:01;6.60;;;6.00;;
24635;SDS011;12772;49.794;10.024;2023-04-22T01:50:05;7.03;;;5.97;;
24635;SDS011;12772;49.794;10.024;2023-04-22T01:54:08;6.35;;;5.82;;
24635;SDS011;12772;49.794;10.024;2023-04-22T01:58:10;5.68;;;5.18;;
24635;SDS011;12772;49.794;10.024;2023-04-22T02:02:12;8.60;;;6.10;;
24635;SDS011;12772;49.794;10.024;2023-04-22T02:06:15;6.20;;;5.70;;
24635;SDS011;12772;49.794;10.024;2023-04-22T02:10:17;5.22;;;4.82;;
24635;SDS011;12772;49.794;10.024;2023-04-22T02:14:19;5.85;;;4.85;;
24635;SDS011;12772;49.794;10.024;2023-04-22T02:18:21;5.47;;;5.00;;
24635;SDS011;12772;49.794;10.024;2023-04-22T02:22:23;5.25;;;4.75;;
24635;SDS011;12772;49.794;10.024;2023-04-22T02:26:26;5.65;;;5.15;;
24635;SDS011;12772;49.794;10.024;2023-04-22T02:30:30;6.25;;;5.07;;
24635;SDS011;12772;49.794;10.024;2023-04-22T02:34:32;7.60;;;5.70;;
24635;SDS011;12772;49.794;10.024;2023-04-22T02:38:35;6.03;;;5.40;;
24635;SDS011;12772;49.794;10.024;2023-04-22T02:42:38;5.47;;;4.97;;
24635;SDS011;12772;49.794;10.024;2023-04-22T02:46:40;6.20;;;5.70;;
24635;SDS011;12772;49.794;10.024;2023-04-22T02:50:42;6.30;;;5.70;;
24635;SDS011;12772;49.794;10.024;2023-04-22T02:54:44;5.88;;;5.22;;
24635;SDS011;12772;49.794;10.024;2023-04-22T02:58:46;5.68;;;4.82;;
24635;SDS011;12772;49.794;10.024;2023-04-22T03:02:48;5.13;;;4.72;;
24635;SDS011;12772;49.794;10.024;2023-04-22T03:06:50;4.93;;;4.53;;
24635;SDS011;12772;49.794;10.024;2023-04-22T03:10:53;5.70;;;5.20;;
24635;SDS011;12772;49.794;10.024;2023-04-22T03:14:55;5.03;;;4.57;;
24635;SDS011;12772;49.794;10.024;2023-04-22T03:18:57;5.25;;;4.85;;
24635;SDS011;12772;49.794;10.024;2023-04-22T03:22:59;5.63;;;5.13;;
24635;SDS011;12772;49.794;10.024;2023-04-22T03:27:01;7.47;;;5.20;;
24635;SDS011;12772;49.794;10.024;2023-04-22T03:31:03;5.15;;;4.75;;
24635;SDS011;12772;49.794;10.024;2023-04-22T03:35:06;5.88;;;5.38;;
24635;SDS011;12772;49.794;10.024;2023-04-22T03:39:08;7.00;;;4.32;;
24635;SDS011;12772;49.794;10.024;2023-04-22T03:43:10;5.32;;;4.82;;
24635;SDS011;12772;49.794;10.024;2023-04-22T03:47:12;5.60;;;5.10;;
24635;SDS011;12772;49.794;10.024;2023-04-22T03:51:14;5.32;;;4.82;;
24635;SDS011;12772;49.794;10.024;2023-04-22T03:55:16;5.95;;;5.38;;
24635;SDS011;12772;49.794;10.024;2023-04-22T03:59:18;5.10;;;4.70;;
24635;SDS011;12772;49.794;10.024;2023-04-22T04:03:21;5.10;;;4.60;;
24635;SDS011;12772;49.794;10.024;2023-04-22T04:07:23;4.47;;;4.10;;
24635;SDS011;12772;49.794;10.024;2023-04-22T04:11:25;5.20;;;4.72;;
24635;SDS011;12772;49.794;10.024;2023-04-22T04:15:27;4.90;;;4.50;;
24635;SDS011;12772;49.794;10.024;2023-04-22T04:19:29;6.07;;;4.68;;
24635;SDS011;12772;49.794;10.024;2023-04-22T04:23:32;5.40;;;4.93;;
24635;SDS011;12772;49.794;10.024;2023-04-22T04:27:34;6.32;;;5.00;;
24635;SDS011;12772;49.794;10.024;2023-04-22T04:31:38;5.22;;;4.72;;
24635;SDS011;12772;49.794;10.024;2023-04-22T04:35:41;4.68;;;4.28;;
24635;SDS011;12772;49.794;10.024;2023-04-22T04:39:44;4.55;;;4.20;;
24635;SDS011;12772;49.794;10.024;2023-04-22T04:43:46;6.90;;;4.85;;
24635;SDS011;12772;49.794;10.024;2023-04-22T04:47:50;4.97;;;4.57;;
24635;SDS011;12772;49.794;10.024;2023-04-22T04:51:54;4.60;;;4.20;;
24635;SDS011;12772;49.794;10.024;2023-04-22T04:55:56;5.25;;;4.75;;
24635;SDS011;12772;49.794;10.024;2023-04-22T04:59:58;4.80;;;4.40;;
24635;SDS011;12772;49.794;10.024;2023-04-22T05:04:01;5.60;;;4.72;;
24635;SDS011;12772;49.794;10.024;2023-04-22T05:08:03;4.85;;;4.43;;
24635;SDS011;12772;49.794;10.024;2023-04-22T05:12:05;5.10;;;4.20;;
24635;SDS011;12772;49.794;10.024;2023-04-22T05:16:07;6.05;;;4.97;;
24635;SDS011;12772;49.794;10.024;2023-04-22T05:20:09;5.32;;;4.55;;
24635;SDS011;12772;49.794;10.024;2023-04-22T05:24:11;5.35;;;4.82;;
24635;SDS011;12772;49.794;10.024;2023-04-22T05:28:13;5.07;;;4.53;;
24635;SDS011;12772;49.794;10.024;2023-04-22T05:32:15;4.75;;;4.10;;
24635;SDS011;12772;49.794;10.024;2023-04-22T05:36:18;4.60;;;4.25;;
24635;SDS011;12772;49.794;10.024;2023-04-22T05:40:20;4.43;;;4.13;;
24635;SDS011;12772;49.794;10.024;2023-04-22T05:44:22;4.78;;;4.35;;
24635;SDS011;12772;49.794;10.024;2023-04-22T05:48:24;8.05;;;4.45;;
24635;SDS011;12772;49.794;10.024;2023-04-22T05:52:26;4.68;;;4.28;;
24635;SDS011;12772;49.794;10.024;2023-04-22T05:56:28;4.75;;;4.35;;
24635;SDS011;12772;49.794;10.024;2023-04-22T06:00:30;7.25;;;4.38;;
24635;SDS011;12772;49.794;10.024;2023-04-22T06:04:32;4.72;;;4.22;;
24635;SDS011;12772;49.794;10.024;2023-04-22T06:08:34;4.50;;;3.80;;
24635;SDS011;12772;49.794;10.024;2023-04-22T06:12:36;5.28;;;4.40;;
24635;SDS011;12772;49.794;10.024;2023-04-22T06:16:39;5.95;;;4.18;;
24635;SDS011;12772;49.794;10.024;2023-04-22T06:20:42;4.60;;;4.18;;
24635;SDS011;12772;49.794;10.024;2023-04-22T06:24:44;5.47;;;4.85;;
24635;SDS011;12772;49.794;10.024;2023-04-22T06:28:46;6.38;;;4.45;;
24635;SDS011;12772;49.794;10.024;2023-04-22T06:32:48;5.55;;;4.63;;
24635;SDS011;12772;49.794;10.024;2023-04-22T06:36:51;5.55;;;4.35;;
24635;SDS011;12772;49.794;10.024;2023-04-22T06:40:54;6.03;;;4.03;;
24635;SDS011;12772;49.794;10.024;2023-04-22T06:44:56;4.93;;;3.80;;
24635;SDS011;12772;49.794;10.024;2023-04-22T06:48:58;4.30;;;3.88;;
24635;SDS011;12772;49.794;10.024;2023-04-22T06:53:00;4.78;;;3.72;;
24635;SDS011;12772;49.794;10.024;2023-04-22T06:57:02;7.03;;;4.35;;
24635;SDS011;12772;49.794;10.024;2023-04-22T07:01:04;6.90;;;3.53;;
24635;SDS011;12772;49.794;10.024;2023-04-22T07:05:07;4.40;;;3.85;;
24635;SDS011;12772;49.794;10.024;2023-04-22T07:09:09;5.40;;;4.00;;
24635;SDS011;12772;49.794;10.024;2023-04-22T07:13:11;11.55;;;4.00;;
24635;SDS011;12772;49.794;10.024;2023-04-22T07:17:13;4.13;;;3.72;;
24635;SDS011;12772;49.794;10.024;2023-04-22T07:21:18;4.25;;;3.85;;
24635;SDS011;12772;49.794;10.024;2023-04-22T07:25:20;5.72;;;4.28;;
24635;SDS011;12772;49.794;10.024;2023-04-22T07:29:23;10.65;;;5.13;;
24635;SDS011;12772;49.794;10.024;2023-04-22T07:33:25;7.10;;;4.57;;
24635;SDS011;12772;49.794;10.024;2023-04-22T07:37:27;5.10;;;4.32;;
24635;SDS011;12772;49.794;10.024;2023-04-22T07:41:29;4.72;;;4.22;;
24635;SDS011;12772;49.794;10.024;2023-04-22T07:45:31;4.65;;;3.83;;
24635;SDS011;12772;49.794;10.024;2023-04-22T07:49:33;5.03;;;4.05;;
24635;SDS011;12772;49.794;10.024;2023-04-22T07:53:35;4.57;;;4.10;;
24635;SDS011;12772;49.794;10.024;2023-04-22T07:57:37;4.95;;;4.22;;
24635;SDS011;12772;49.794;10.024;2023-04-22T08:01:39;5.20;;;4.15;;
24635;SDS011;12772;49.794;10.024;2023-04-22T08:05:42;5.80;;;4.53;;
24635;SDS011;12772;49.794;10.024;2023-04-22T08:09:44;7.57;;;4.70;;
24635;SDS011;12772;49.794;10.024;2023-04-22T08:13:46;5.10;;;4.32;;
24635;SDS011;12772;49.794;10.024;2023-04-22T08:17:48;6.00;;;4.53;;
24635;SDS011;12772;49.794;10.024;2023-04-22T08:21:50;4.65;;;4.25;;
24635;SDS011;12772;49.794;10.024;2023-04-22T08:25:52;6.95;;;3.80;;
24635;SDS011;12772;49.794;10.024;2023-04-22T08:29:55;4.90;;;4.40;;
24635;SDS011;12772;49.794;10.024;2023-04-22T08:33:57;8.27;;;4.35;;
24635;SDS011;12772;49.794;10.024;2023-04-22T08:37:59;5.72;;;4.30;;
24635;SDS011;12772;49.794;10.024;2023-04-22T08:42:01;4.75;;;4.30;;
24635;SDS011;12772;49.794;10.024;2023-04-22T08:46:04;7.05;;;4.45;;
24635;SDS011;12772;49.794;10.024;2023-04-22T08:50:06;6.40;;;4.82;;
24635;SDS011;12772;49.794;10.024;2023-04-22T08:54:09;4.70;;;4.30;;
24635;SDS011;12772;49.794;10.024;2023-04-22T08:58:12;5.22;;;3.85;;
24635;SDS011;12772;49.794;10.024;2023-04-22T09:02:20;4.07;;;3.78;;
24635;SDS011;12772;49.794;10.024;2023-04-22T09:06:23;4.35;;;3.80;;
24635;SDS011;12772;49.794;10.024;2023-04-22T09:10:26;5.47;;;4.57;;
24635;SDS011;12772;49.794;10.024;2023-04-22T09:14:28;4.30;;;3.90;;
24635;SDS011;12772;49.794;10.024;2023-04-22T09:18:37;5.93;;;4.45;;
24635;SDS011;12772;49.794;10.024;2023-04-22T09:22:41;7.57;;;4.47;;
24635;SDS011;12772;49.794;10.024;2023-04-22T09:26:49;5.13;;;4.40;;
24635;SDS011;12772;49.794;10.024;2023-04-22T09:30:51;5.07;;;4.20;;
24635;SDS011;12772;49.794;10.024;2023-04-22T09:34:53;5.03;;;4.05;;
24635;SDS011;12772;49.794;10.024;2023-04-22T09:38:58;6.10;;;4.88;;
24635;SDS011;12772;49.794;10.024;2023-04-22T09:43:04;5.78;;;4.20;;
24635;SDS011;12772;49.794;10.024;2023-04-22T09:47:08;7.47;;;4.03;;
24635;SDS011;12772;49.794;10.024;2023-04-22T09:51:15;6.00;;;4.88;;
24635;SDS011;12772;49.794;10.024;2023-04-22T09:55:18;6.35;;;4.07;;
24635;SDS011;12772;49.794;10.024;2023-04-22T09:59:22;8.13;;;4.40;;
24635;SDS011;12772;49.794;10.024;2023-04-22T10:03:27;4.80;;;4.30;;
24635;SDS011;12772;49.794;10.024;2023-04-22T10:07:29;5.20;;;3.92;;
24635;SDS011;12772;49.794;10.024;2023-04-22T10:11:32;4.72;;;4.22;;
24635;SDS011;12772;49.794;10.024;2023-04-22T10:15:37;4.55;;;4.15;;
24635;SDS011;12772;49.794;10.024;2023-04-22T10:19:41;5.28;;;4.25;;
24635;SDS011;12772;49.794;10.024;2023-04-22T10:23:47;4.22;;;3.88;;
24635;SDS011;12772;49.794;10.024;2023-04-22T10:27:53;5.53;;;3.85;;
24635;SDS011;12772;49.794;10.024;2023-04-22T10:36:18;3.70;;;3.40;;
24635;SDS011;12772;49.794;10.024;2023-04-22T10:40:21;4.70;;;3.20;;
24635;SDS011;12772;49.794;10.024;2023-04-22T10:44:26;4.07;;;3.70;;
24635;SDS011;12772;49.794;10.024;2023-04-22T10:48:48;4.70;;;3.63;;
24635;SDS011;12772;49.794;10.024;2023-04-22T10:52:54;4.43;;;3.80;;
24635;SDS011;12772;49.794;10.024;2023-04-22T10:57:07;4.63;;;4.20;;
24635;SDS011;12772;49.794;10.024;2023-04-22T11:01:21;4.88;;;4.47;;
24635;SDS011;12772;49.794;10.024;2023-04-22T11:05:24;5.07;;;3.97;;
24635;SDS011;12772;49.794;10.024;2023-04-22T11:09:27;6.45;;;4.03;;
24635;SDS011;12772;49.794;10.024;2023-04-22T11:13:29;6.30;;;4.72;;
24635;SDS011;12772;49.794;10.024;2023-04-22T11:17:32;4.72;;;4.30;;
24635;SDS011;12772;49.794;10.024;2023-04-22T11:21:34;5.00;;;4.53;;
24635;SDS011;12772;49.794;10.024;2023-04-22T11:25:37;4.72;;;4.32;;
24635;SDS011;12772;49.794;10.024;2023-04-22T11:29:39;5.38;;;4.93;;
24635;SDS011;12772;49.794;10.024;2023-04-22T11:33:41;4.85;;;4.45;;
24635;SDS011;12772;49.794;10.024;2023-04-22T11:37:56;5.20;;;4.72;;
24635;SDS011;12772;49.794;10.024;2023-04-22T11:41:59;5.38;;;4.78;;
24635;SDS011;12772;49.794;10.024;2023-04-22T11:46:02;5.40;;;4.90;;
24635;SDS011;12772;49.794;10.024;2023-04-22T11:50:05;4.75;;;4.30;;
24635;SDS011;12772;49.794;10.024;2023-04-22T11:54:13;4.20;;;3.80;;
24635;SDS011;12772;49.794;10.024;2023-04-22T11:58:25;3.45;;;3.22;;
24635;SDS011;12772;49.794;10.024;2023-04-22T12:02:27;3.75;;;3.45;;
24635;SDS011;12772;49.794;10.024;2023-04-22T12:06:30;2.85;;;2.60;;
24635;SDS011;12772;49.794;10.024;2023-04-22T12:10:32;2.03;;;1.77;;
24635;SDS011;12772;49.794;10.024;2023-04-22T12:14:34;2.17;;;2.08;;
24635;SDS011;12772;49.794;10.024;2023-04-22T12:18:37;2.10;;;2.00;;
24635;SDS011;12772;49.794;10.024;2023-04-22T12:22:39;3.03;;;2.72;;
24635;SDS011;12772;49.794;10.024;2023-04-22T12:26:41;2.67;;;2.20;;
24635;SDS011;12772;49.794;10.024;2023-04-22T12:30:44;2.00;;;1.90;;
24635;SDS011;12772;49.794;10.024;2023-04-22T12:34:46;1.73;;;1.63;;
24635;SDS011;12772;49.794;10.024;2023-04-22T12:38:48;2.25;;;2.05;;
24635;SDS011;12772;49.794;10.024;2023-04-22T12:42:51;1.60;;;1.50;;
24635;SDS011;12772;49.794;10.024;2023-04-22T12:46:53;3.60;;;1.77;;
24635;SDS011;12772;49.794;10.024;2023-04-22T12:50:55;2.00;;;1.70;;
24635;SDS011;12772;49.794;10.024;2023-04-22T12:54:57;1.55;;;1.45;;
24635;SDS011;12772;49.794;10.024;2023-04-22T12:59:00;1.58;;;1.48;;
24635;SDS011;12772;49.794;10.024;2023-04-22T13:03:02;1.38;;;1.27;;
24635;SDS011;12772;49.794;10.024;2023-04-22T13:07:04;3.15;;;1.77;;
24635;SDS011;12772;49.794;10.024;2023-04-22T13:11:07;1.40;;;1.27;;
24635;SDS011;12772;49.794;10.024;2023-04-22T13:15:09;2.38;;;1.17;;
24635;SDS011;12772;49.794;10.024;2023-04-22T13:19:12;1.30;;;1.30;;
24635;SDS011;12772;49.794;10.024;2023-04-22T13:23:14;1.73;;;1.63;;
24635;SDS011;12772;49.794;10.024;2023-04-22T13:27:19;2.70;;;1.70;;
24635;SDS011;12772;49.794;10.024;2023-04-22T13:31:21;1.65;;;1.55;;
24635;SDS011;12772;49.794;10.024;2023-04-22T13:35:23;1.63;;;1.52;;
24635;SDS011;12772;49.794;10.024;2023-04-22T13:39:25;2.75;;;1.30;;
24635;SDS011;12772;49.794;10.024;2023-04-22T13:43:27;1.60;;;1.48;;
24635;SDS011;12772;49.794;10.024;2023-04-22T13:47:29;2.70;;;1.50;;
24635;SDS011;12772;49.794;10.024;2023-04-22T13:51:31;1.30;;;1.30;;
24635;SDS011;12772;49.794;10.024;2023-04-22T13:55:33;1.42;;;1.33;;
24635;SDS011;12772;49.794;10.024;2023-04-22T13:59:36;2.35;;;1.48;;
24635;SDS011;12772;49.794;10.024;2023-04-22T14:03:39;2.15;;;1.30;;
24635;SDS011;12772;49.794;10.024;2023-04-22T14:07:44;2.42;;;1.45;;
24635;SDS011;12772;49.794;10.024;2023-04-22T14:11:46;3.58;;;1.70;;
24635;SDS011;12772;49.794;10.024;2023-04-22T14:15:48;1.90;;;1.48;;
24635;SDS011;12772;49.794;10.024;2023-04-22T14:19:51;2.17;;;1.80;;
24635;SDS011;12772;49.794;10.024;2023-04-22T14:23:54;3.00;;;1.50;;
24635;SDS011;12772;49.794;10.024;2023-04-22T14:27:56;1.60;;;1.50;;
24635;SDS011;12772;49.794;10.024;2023-04-22T14:31:58;2.53;;;1.67;;
24635;SDS011;12772;49.794;10.024;2023-04-22T14:36:00;2.50;;;1.63;;
24635;SDS011;12772;49.794;10.024;2023-04-22T14:40:03;1.80;;;1.70;;
24635;SDS011;12772;49.794;10.024;2023-04-22T14:44:05;3.40;;;1.80;;
24635;SDS011;12772;49.794;10.024;2023-04-22T14:48:07;2.72;;;1.90;;
24635;SDS011;12772;49.794;10.024;2023-04-22T14:52:10;2.28;;;1.65;;
24635;SDS011;12772;49.794;10.024;2023-04-22T14:56:12;3.72;;;2.05;;
24635;SDS011;12772;49.794;10.024;2023-04-22T15:00:14;1.83;;;1.60;;
24635;SDS011;12772;49.794;10.024;2023-04-22T15:04:17;3.17;;;1.45;;
24635;SDS011;12772;49.794;10.024;2023-04-22T15:08:19;2.10;;;1.90;;
24635;SDS011;12772;49.794;10.024;2023-04-22T15:12:21;2.65;;;2.05;;
24635;SDS011;12772;49.794;10.024;2023-04-22T15:16:23;2.17;;;1.70;;
24635;SDS011;12772;49.794;10.024;2023-04-22T15:20:26;2.00;;;1.80;;
24635;SDS011;12772;49.794;10.024;2023-04-22T15:24:28;2.33;;;1.85;;
24635;SDS011;12772;49.794;10.024;2023-04-22T15:28:30;2.67;;;1.58;;
24635;SDS011;12772;49.794;10.024;2023-04-22T15:32:32;1.90;;;1.70;;
24635;SDS011;12772;49.794;10.024;2023-04-22T15:36:35;2.30;;;2.10;;
24635;SDS011;12772;49.794;10.024;2023-04-22T15:40:37;2.08;;;1.88;;
24635;SDS011;12772;49.794;10.024;2023-04-22T15:44:39;2.90;;;1.88;;
24635;SDS011;12772;49.794;10.024;2023-04-22T15:48:42;3.38;;;2.00;;
24635;SDS011;12772;49.794;10.024;2023-04-22T15:52:46;2.67;;;2.45;;
24635;SDS011;12772;49.794;10.024;2023-04-22T15:56:48;2.58;;;2.38;;
24635;SDS011;12772;49.794;10.024;2023-04-22T16:00:50;2.20;;;2.10;;
24635;SDS011;12772;49.794;10.024;2023-04-22T16:04:52;2.40;;;2.20;;
24635;SDS011;12772;49.794;10.024;2023-04-22T16:08:54;2.67;;;2.42;;
24635;SDS011;12772;49.794;10.024;2023-04-22T16:12:56;3.08;;;1.98;;
24635;SDS011;12772;49.794;10.024;2023-04-22T16:16:58;2.00;;;1.80;;
24635;SDS011;12772;49.794;10.024;2023-04-22T16:21:02;2.00;;;1.73;;
24635;SDS011;12772;49.794;10.024;2023-04-22T16:25:04;2.53;;;1.80;;
24635;SDS011;12772;49.794;10.024;2023-04-22T16:29:07;24.73;;;22.63;;
24635;SDS011;12772;49.794;10.024;2023-04-22T16:33:09;7.03;;;6.30;;
24635;SDS011;12772;49.794;10.024;2023-04-22T16:37:11;17.50;;;11.27;;
24635;SDS011;12772;49.794;10.024;2023-04-22T16:41:13;10.38;;;5.63;;
24635;SDS011;12772;49.794;10.024;2023-04-22T16:45:15;15.93;;;10.70;;
24635;SDS011;12772;49.794;10.024;2023-04-22T16:49:17;6.05;;;5.45;;
24635;SDS011;12772;49.794;10.024;2023-04-22T16:53:20;3.28;;;2.75;;
24635;SDS011;12772;49.794;10.024;2023-04-22T16:57:22;2.70;;;2.50;;
24635;SDS011;12772;49.794;10.024;2023-04-22T17:01:25;2.55;;;2.35;;
24635;SDS011;12772;49.794;10.024;2023-04-22T17:05:29;3.05;;;2.10;;
24635;SDS011;12772;49.794;10.024;2023-04-22T17:09:31;2.97;;;2.33;;
24635;SDS011;12772;49.794;10.024;2023-04-22T17:13:33;2.22;;;2.03;;
24635;SDS011;12772;49.794;10.024;2023-04-22T17:17:35;3.72;;;2.28;;
24635;SDS011;12772;49.794;10.024;2023-04-22T17:21:37;3.22;;;2.13;;
24635;SDS011;12772;49.794;10.024;2023-04-22T17:25:39;2.83;;;2.45;;
24635;SDS011;12772;49.794;10.024;2023-04-22T17:29:41;1.88;;;1.77;;
24635;SDS011;12772;49.794;10.024;2023-04-22T17:33:43;5.00;;;2.45;;
24635;SDS011;12772;49.794;10.024;2023-04-22T17:37:45;3.38;;;2.40;;
24635;SDS011;12772;49.794;10.024;2023-04-22T17:41:47;3.05;;;2.70;;
24635;SDS011;12772;49.794;10.024;2023-04-22T17:45:50;2.97;;;2.50;;
24635;SDS011;12772;49.794;10.024;2023-04-22T17:49:52;2.53;;;2.33;;
24635;SDS011;12772;49.794;10.024;2023-04-22T17:53:54;2.88;;;2.53;;
24635;SDS011;12772;49.794;10.024;2023-04-22T17:57:56;2.67;;;2.45;;
24635;SDS011;12772;49.794;10.024;2023-04-22T18:01:59;2.47;;;2.22;;
24635;SDS011;12772;49.794;10.024;2023-04-22T18:06:01;2.72;;;2.45;;
24635;SDS011;12772;49.794;10.024;2023-04-22T18:10:03;4.43;;;2.70;;
24635;SDS011;12772;49.794;10.024;2023-04-22T18:14:06;2.83;;;2.60;;
24635;SDS011;12772;49.794;10.024;2023-04-22T18:18:08;2.95;;;2.63;;
24635;SDS011;12772;49.794;10.024;2023-04-22T18:22:10;5.10;;;4.45;;
24635;SDS011;12772;49.794;10.024;2023-04-22T18:26:12;3.53;;;2.50;;
24635;SDS011;12772;49.794;10.024;2023-04-22T18:30:15;3.88;;;2.80;;
24635;SDS011;12772;49.794;10.024;2023-04-22T18:34:17;4.40;;;2.80;;
24635;SDS011;12772;49.794;10.024;2023-04-22T18:38:19;2.65;;;2.30;;
24635;SDS011;12772;49.794;10.024;2023-04-22T18:42:22;3.30;;;3.00;;
24635;SDS011;12772;49.794;10.024;2023-04-22T18:46:24;3.33;;;2.90;;
24635;SDS011;12772;49.794;10.024;2023-04-22T18:50:26;6.35;;;4.68;;
24635;SDS011;12772;49.794;10.024;2023-04-22T18:54:28;3.90;;;3.50;;
24635;SDS011;12772;49.794;10.024;2023-04-22T18:58:30;3.25;;;3.05;;
24635;SDS011;12772;49.794;10.024;2023-04-22T19:02:32;11.65;;;10.45;;
24635;SDS011;12772;49.794;10.024;2023-04-22T19:06:34;9.43;;;8.40;;
24635;SDS011;12772;49.794;10.024;2023-04-22T19:10:36;8.43;;;6.45;;
24635;SDS011;12772;49.794;10.024;2023-04-22T19:14:39;9.65;;;7.28;;
24635;SDS011;12772;49.794;10.024;2023-04-22T19:18:41;8.50;;;6.05;;
24635;SDS011;12772;49.794;10.024;2023-04-22T19:22:44;7.93;;;7.07;;
24635;SDS011;12772;49.794;10.024;2023-04-22T19:26:46;4.95;;;4.43;;
24635;SDS011;12772;49.794;10.024;2023-04-22T19:30:48;5.65;;;2.80;;
24635;SDS011;12772;49.794;10.024;2023-04-22T19:34:50;3.70;;;2.92;;
24635;SDS011;12772;49.794;10.024;2023-04-22T19:38:52;2.70;;;2.50;;
24635;SDS011;12772;49.794;10.024;2023-04-22T19:42:54;2.63;;;2.42;;
24635;SDS011;12772;49.794;10.024;2023-04-22T19:46:58;3.33;;;3.03;;
24635;SDS011;12772;49.794;10.024;2023-04-22T19:51:00;2.83;;;2.50;;
24635;SDS011;12772;49.794;10.024;2023-04-22T19:55:05;3.80;;;2.28;;
24635;SDS011;12772;49.794;10.024;2023-04-22T19:59:08;2.88;;;2.55;;
24635;SDS011;12772;49.794;10.024;2023-04-22T20:03:11;2.47;;;2.28;;
24635;SDS011;12772;49.794;10.024;2023-04-22T20:07:13;2.58;;;2.38;;
24635;SDS011;12772;49.794;10.024;2023-04-22T20:11:16;2.58;;;2.38;;
24635;SDS011;12772;49.794;10.024;2023-04-22T20:15:19;3.25;;;2.38;;
24635;SDS011;12772;49.794;10.024;2023-04-22T20:19:21;3.03;;;2.53;;
24635;SDS011;12772;49.794;10.024;2023-04-22T20:23:23;2.80;;;2.60;;
24635;SDS011;12772;49.794;10.024;2023-04-22T20:27:28;2.90;;;2.40;;
24635;SDS011;12772;49.794;10.024;2023-04-22T20:31:31;2.40;;;2.20;;
24635;SDS011;12772;49.794;10.024;2023-04-22T20:35:35;2.50;;;2.20;;
24635;SDS011;12772;49.794;10.024;2023-04-22T20:39:39;2.97;;;2.20;;
24635;SDS011;12772;49.794;10.024;2023-04-22T20:43:43;3.08;;;2.28;;
24635;SDS011;12772;49.794;10.024;2023-04-22T20:47:45;3.33;;;2.17;;
24635;SDS011;12772;49.794;10.024;2023-04-22T20:51:47;2.63;;;2.13;;
24635;SDS011;12772;49.794;10.024;2023-04-22T20:55:50;2.42;;;1.92;;
24635;SDS011;12772;49.794;10.024;2023-04-22T20:59:53;4.57;;;2.10;;
24635;SDS011;12772;49.794;10.024;2023-04-22T21:03:55;2.17;;;1.95;;
24635;SDS011;12772;49.794;10.024;2023-04-22T21:07:57;3.85;;;2.20;;
24635;SDS011;12772;49.794;10.024;2023-04-22T21:12:01;2.03;;;1.92;;
24635;SDS011;12772;49.794;10.024;2023-04-22T21:16:06;3.17;;;1.98;;
24635;SDS011;12772;49.794;10.024;2023-04-22T21:20:09;2.55;;;2.15;;
24635;SDS011;12772;49.794;10.024;2023-04-22T21:24:12;2.03;;;1.92;;
24635;SDS011;12772;49.794;10.024;2023-04-22T21:28:15;2.83;;;1.92;;
24635;SDS011;12772;49.794;10.024;2023-04-22T21:32:17;2.40;;;1.92;;
24635;SDS011;12772;49.794;10.024;2023-04-22T21:36:20;3.85;;;2.00;;
24635;SDS011;12772;49.794;10.024;2023-04-22T21:40:24;2.45;;;1.90;;
24635;SDS011;12772;49.794;10.024;2023-04-22T21:44:26;1.95;;;1.80;;
24635;SDS011;12772;49.794;10.024;2023-04-22T21:48:28;3.42;;;1.85;;
24635;SDS011;12772;49.794;10.024;2023-04-22T21:52:30;2.33;;;1.67;;
24635;SDS011;12772;49.794;10.024;2023-04-22T21:56:32;1.80;;;1.70;;
24635;SDS011;12772;49.794;10.024;2023-04-22T22:00:35;2.42;;;1.98;;
24635;SDS011;12772;49.794;10.024;2023-04-22T22:04:38;2.13;;;1.70;;
24635;SDS011;12772;49.794;10.024;2023-04-22T22:08:40;2.53;;;1.95;;
24635;SDS011;12772;49.794;10.024;2023-04-22T22:12:44;1.70;;;1.60;;
24635;SDS011;12772;49.794;10.024;2023-04-22T22:16:47;2.15;;;1.90;;
24635;SDS011;12772;49.794;10.024;2023-04-22T22:20:52;2.22;;;1.83;;
24635;SDS011;12772;49.794;10.024;2023-04-22T22:24:55;2.60;;;1.73;;
24635;SDS011;12772;49.794;10.024;2023-04-22T22:28:57;3.05;;;1.80;;
24635;SDS011;12772;49.794;10.024;2023-04-22T22:32:59;3.30;;;1.73;;
24635;SDS011;12772;49.794;10.024;2023-04-22T22:37:01;2.83;;;1.98;;
24635;SDS011;12772;49.794;10.024;2023-04-22T22:41:03;3.92;;;1.80;;
24635;SDS011;12772;49.794;10.024;2023-04-22T22:45:05;3.22;;;1.75;;
24635;SDS011;12772;49.794;10.024;2023-04-22T22:49:08;2.20;;;1.90;;
24635;SDS011;12772;49.794;10.024;2023-04-22T22:53:10;2.22;;;1.90;;
24635;SDS011;12772;49.794;10.024;2023-04-22T22:57:12;1.70;;;1.60;;
24635;SDS011;12772;49.794;10.024;2023-04-22T23:01:15;2.25;;;1.95;;
24635;SDS011;12772;49.794;10.024;2023-04-22T23:05:17;2.40;;;2.15;;
24635;SDS011;12772;49.794;10.024;2023-04-22T23:09:19;2.42;;;1.77;;
24635;SDS011;12772;49.794;10.024;2023-04-22T23:13:21;2.00;;;1.90;;
24635;SDS011;12772;49.794;10.024;2023-04-22T23:17:23;3.35;;;2.25;;
24635;SDS011;12772;49.794;10.024;2023-04-22T23:21:25;2.05;;;1.95;;
24635;SDS011;12772;49.794;10.024;2023-04-22T23:25:28;1.90;;;1.80;;
24635;SDS011;12772;49.794;10.024;2023-04-22T23:29:31;2.95;;;1.92;;
24635;SDS011;12772;49.794;10.024;2023-04-22T23:33:33;2.95;;;2.00;;
24635;SDS011;12772;49.794;10.024;2023-04-22T23:37:36;3.67;;;2.08;;
24635;SDS011;12772;49.794;10.024;2023-04-22T23:41:41;3.20;;;2.10;;
24635;SDS011;12772;49.794;10.024;2023-04-22T23:45:43;1.92;;;1.83;;
24635;SDS011;12772;49.794;10.024;2023-04-22T23:49:45;2.38;;;1.90;;
24635;SDS011;12772;49.794;10.024;2023-04-22T23:53:48;3.35;;;2.13;;
24635;SDS011;12772;49.794;10.024;2023-04-22T23:57:50;2.42;;;2.20;;
